createdAt,value
2017-11-28T00:00:21.749Z,998.33
2017-11-28T00:00:47.912Z,998.42
2017-11-28T00:01:14.038Z,998.39
2017-11-28T00:01:40.159Z,998.38
2017-11-28T00:02:06.277Z,998.36
2017-11-28T00:02:32.397Z,998.41
2017-11-28T00:02:58.518Z,998.45
2017-11-28T00:03:24.638Z,998.39
2017-11-28T00:03:50.760Z,998.43
2017-11-28T00:04:16.881Z,998.43
2017-11-28T00:04:43.024Z,998.41
2017-11-28T00:05:09.139Z,998.42
2017-11-28T00:05:35.252Z,998.46
2017-11-28T00:06:01.376Z,998.52
2017-11-28T00:06:27.497Z,998.41
2017-11-28T00:06:53.659Z,998.41
2017-11-28T00:07:19.738Z,998.46
2017-11-28T00:07:45.864Z,998.43
2017-11-28T00:08:12.006Z,998.44
2017-11-28T00:08:38.145Z,998.39
2017-11-28T00:09:04.259Z,998.46
2017-11-28T00:09:30.371Z,998.49
2017-11-28T00:09:56.497Z,998.46
2017-11-28T00:10:22.619Z,998.41
2017-11-28T00:10:48.764Z,998.47
2017-11-28T00:11:14.879Z,998.49
2017-11-28T00:11:41.000Z,998.48
2017-11-28T00:12:07.123Z,998.49
2017-11-28T00:12:33.244Z,998.43
2017-11-28T00:12:59.394Z,998.47
2017-11-28T00:13:25.512Z,998.47
2017-11-28T00:13:51.658Z,998.47
2017-11-28T00:14:17.783Z,998.42
2017-11-28T00:14:43.900Z,998.44
2017-11-28T00:15:10.021Z,998.44
2017-11-28T00:15:36.149Z,998.48
2017-11-28T00:16:02.266Z,998.44
2017-11-28T00:16:28.394Z,998.38
2017-11-28T00:16:54.505Z,998.4
2017-11-28T00:17:20.629Z,998.41
2017-11-28T00:17:46.746Z,998.45
2017-11-28T00:18:12.880Z,998.45
2017-11-28T00:18:39.002Z,998.41
2017-11-28T00:19:05.124Z,998.41
2017-11-28T00:19:31.250Z,998.44
2017-11-28T00:19:57.362Z,998.44
2017-11-28T00:20:23.487Z,998.5
2017-11-28T00:20:49.606Z,998.48
2017-11-28T00:21:15.725Z,998.44
2017-11-28T00:21:41.854Z,998.47
2017-11-28T00:22:07.971Z,998.43
2017-11-28T00:22:34.115Z,998.48
2017-11-28T00:23:00.235Z,998.43
2017-11-28T00:23:26.360Z,998.53
2017-11-28T00:23:52.480Z,998.49
2017-11-28T00:24:18.600Z,998.43
2017-11-28T00:24:44.725Z,998.43
2017-11-28T00:25:10.844Z,998.43
2017-11-28T00:25:36.975Z,998.45
2017-11-28T00:26:03.092Z,998.39
2017-11-28T00:26:29.220Z,998.48
2017-11-28T00:26:55.337Z,998.53
2017-11-28T00:27:21.459Z,998.48
2017-11-28T00:27:47.577Z,998.43
2017-11-28T00:28:13.706Z,998.54
2017-11-28T00:28:39.821Z,998.51
2017-11-28T00:29:05.941Z,998.48
2017-11-28T00:29:32.070Z,998.51
2017-11-28T00:29:58.209Z,998.51
2017-11-28T00:30:24.332Z,998.55
2017-11-28T00:30:50.456Z,998.46
2017-11-28T00:31:16.580Z,998.46
2017-11-28T00:31:42.703Z,998.46
2017-11-28T00:32:08.840Z,998.44
2017-11-28T00:32:34.977Z,998.41
2017-11-28T00:33:01.091Z,998.44
2017-11-28T00:33:27.213Z,998.38
2017-11-28T00:33:53.335Z,998.45
2017-11-28T00:34:19.480Z,998.36
2017-11-28T00:34:45.598Z,998.41
2017-11-28T00:35:11.720Z,998.39
2017-11-28T00:35:37.871Z,998.34
2017-11-28T00:36:03.982Z,998.36
2017-11-28T00:36:30.129Z,998.47
2017-11-28T00:36:56.279Z,998.41
2017-11-28T00:37:22.398Z,998.49
2017-11-28T00:37:48.535Z,998.42
2017-11-28T00:38:14.659Z,998.5
2017-11-28T00:38:40.786Z,998.46
2017-11-28T00:39:06.901Z,998.45
2017-11-28T00:39:33.027Z,998.42
2017-11-28T00:39:59.150Z,998.49
2017-11-28T00:40:25.268Z,998.42
2017-11-28T00:40:51.396Z,998.45
2017-11-28T00:41:17.522Z,998.47
2017-11-28T00:41:43.642Z,998.47
2017-11-28T00:42:09.765Z,998.44
2017-11-28T00:42:35.882Z,998.39
2017-11-28T00:43:02.011Z,998.39
2017-11-28T00:43:28.127Z,998.45
2017-11-28T00:43:54.259Z,998.41
2017-11-28T00:44:20.393Z,998.45
2017-11-28T00:44:46.537Z,998.48
2017-11-28T00:45:12.659Z,998.4
2017-11-28T00:45:38.782Z,998.44
2017-11-28T00:46:04.907Z,998.53
2017-11-28T00:46:31.029Z,998.53
2017-11-28T00:46:57.148Z,998.42
2017-11-28T00:47:23.269Z,998.39
2017-11-28T00:47:49.415Z,998.41
2017-11-28T00:48:15.555Z,998.45
2017-11-28T00:48:41.670Z,998.45
2017-11-28T00:49:07.793Z,998.41
2017-11-28T00:49:33.925Z,998.41
2017-11-28T00:50:00.038Z,998.39
2017-11-28T00:50:26.185Z,998.41
2017-11-28T00:50:52.304Z,998.33
2017-11-28T00:51:18.448Z,998.38
2017-11-28T00:51:44.570Z,998.4
2017-11-28T00:52:10.688Z,998.37
2017-11-28T00:52:36.812Z,998.4
2017-11-28T00:53:02.928Z,998.4
2017-11-28T00:53:29.049Z,998.39
2017-11-28T00:53:55.174Z,998.41
2017-11-28T00:54:21.311Z,998.49
2017-11-28T00:54:47.436Z,998.39
2017-11-28T00:55:13.565Z,998.43
2017-11-28T00:55:39.688Z,998.4
2017-11-28T00:56:05.808Z,998.41
2017-11-28T00:56:31.945Z,998.4
2017-11-28T00:56:58.071Z,998.39
2017-11-28T00:57:24.185Z,998.37
2017-11-28T00:57:50.304Z,998.43
2017-11-28T00:58:16.427Z,998.37
2017-11-28T00:58:42.555Z,998.4
2017-11-28T00:59:08.674Z,998.45
2017-11-28T00:59:34.802Z,998.45
2017-11-28T01:00:00.923Z,998.41
2017-11-28T01:00:27.043Z,998.45
2017-11-28T01:00:53.187Z,998.42
2017-11-28T01:01:19.312Z,998.42
2017-11-28T01:01:45.431Z,998.45
2017-11-28T01:02:11.554Z,998.36
2017-11-28T01:02:37.668Z,998.38
2017-11-28T01:03:03.787Z,998.33
2017-11-28T01:03:29.918Z,998.42
2017-11-28T01:03:56.036Z,998.32
2017-11-28T01:04:22.164Z,998.42
2017-11-28T01:04:48.284Z,998.4
2017-11-28T01:05:14.407Z,998.43
2017-11-28T01:05:40.531Z,998.38
2017-11-28T01:06:06.660Z,998.36
2017-11-28T01:06:32.768Z,998.4
2017-11-28T01:06:58.894Z,998.34
2017-11-28T01:07:25.014Z,998.4
2017-11-28T01:07:51.136Z,998.34
2017-11-28T01:08:17.281Z,998.31
2017-11-28T01:08:43.398Z,998.34
2017-11-28T01:09:09.518Z,998.37
2017-11-28T01:09:35.636Z,998.3
2017-11-28T01:10:01.762Z,998.28
2017-11-28T01:10:27.912Z,998.34
2017-11-28T01:10:54.035Z,998.31
2017-11-28T01:11:20.172Z,998.31
2017-11-28T01:11:46.299Z,998.33
2017-11-28T01:12:12.417Z,998.3
2017-11-28T01:12:38.543Z,998.34
2017-11-28T01:13:04.666Z,998.42
2017-11-28T01:13:30.808Z,998.34
2017-11-28T01:13:56.925Z,998.36
2017-11-28T01:14:23.055Z,998.34
2017-11-28T01:14:49.178Z,998.35
2017-11-28T01:15:15.292Z,998.4
2017-11-28T01:15:41.438Z,998.39
2017-11-28T01:16:07.560Z,998.37
2017-11-28T01:16:33.702Z,998.34
2017-11-28T01:16:59.821Z,998.32
2017-11-28T01:17:25.945Z,998.39
2017-11-28T01:17:52.084Z,998.33
2017-11-28T01:18:18.213Z,998.37
2017-11-28T01:18:44.361Z,998.34
2017-11-28T01:19:10.476Z,998.41
2017-11-28T01:19:36.604Z,998.48
2017-11-28T01:20:02.722Z,998.41
2017-11-28T01:20:28.843Z,998.42
2017-11-28T01:20:54.966Z,998.43
2017-11-28T01:21:21.102Z,998.4
2017-11-28T01:21:47.227Z,998.39
2017-11-28T01:22:13.348Z,998.38
2017-11-28T01:22:39.464Z,998.44
2017-11-28T01:23:05.582Z,998.4
2017-11-28T01:23:31.711Z,998.37
2017-11-28T01:23:57.826Z,998.37
2017-11-28T01:24:23.951Z,998.39
2017-11-28T01:24:50.066Z,998.39
2017-11-28T01:25:16.181Z,998.46
2017-11-28T01:25:42.300Z,998.47
2017-11-28T01:26:08.430Z,998.49
2017-11-28T01:26:34.554Z,998.47
2017-11-28T01:27:00.677Z,998.49
2017-11-28T01:27:26.797Z,998.47
2017-11-28T01:27:52.920Z,998.47
2017-11-28T01:28:19.042Z,998.43
2017-11-28T01:28:45.158Z,998.42
2017-11-28T01:29:11.276Z,998.45
2017-11-28T01:29:37.402Z,998.45
2017-11-28T01:30:03.521Z,998.4
2017-11-28T01:30:29.667Z,998.43
2017-11-28T01:30:55.793Z,998.47
2017-11-28T01:31:21.909Z,998.36
2017-11-28T01:31:48.027Z,998.38
2017-11-28T01:32:14.151Z,998.41
2017-11-28T01:32:40.281Z,998.33
2017-11-28T01:33:06.390Z,998.43
2017-11-28T01:33:32.512Z,998.39
2017-11-28T01:33:58.629Z,998.36
2017-11-28T01:34:24.750Z,998.33
2017-11-28T01:34:50.885Z,998.26
2017-11-28T01:35:17.004Z,998.25
2017-11-28T01:35:43.131Z,998.26
2017-11-28T01:36:09.245Z,998.26
2017-11-28T01:36:35.372Z,998.27
2017-11-28T01:37:01.489Z,998.23
2017-11-28T01:37:27.614Z,998.23
2017-11-28T01:37:53.758Z,998.24
2017-11-28T01:38:19.873Z,998.23
2017-11-28T01:38:45.994Z,998.19
2017-11-28T01:39:12.118Z,998.24
2017-11-28T01:39:38.237Z,998.25
2017-11-28T01:40:04.357Z,998.24
2017-11-28T01:40:30.479Z,998.25
2017-11-28T01:40:56.599Z,998.26
2017-11-28T01:41:22.722Z,998.27
2017-11-28T01:41:48.863Z,998.26
2017-11-28T01:42:14.983Z,998.27
2017-11-28T01:42:41.112Z,998.21
2017-11-28T01:43:07.262Z,998.21
2017-11-28T01:43:33.377Z,998.19
2017-11-28T01:43:59.502Z,998.28
2017-11-28T01:44:25.618Z,998.24
2017-11-28T01:44:51.751Z,998.19
2017-11-28T01:45:17.862Z,998.22
2017-11-28T01:45:44.006Z,998.25
2017-11-28T01:46:10.128Z,998.19
2017-11-28T01:46:36.249Z,998.13
2017-11-28T01:47:02.378Z,998.23
2017-11-28T01:47:28.487Z,998.23
2017-11-28T01:47:54.610Z,998.17
2017-11-28T01:48:20.731Z,998.17
2017-11-28T01:48:46.843Z,998.09
2017-11-28T01:49:12.968Z,998.08
2017-11-28T01:49:39.087Z,998.14
2017-11-28T01:50:05.212Z,998.11
2017-11-28T01:50:31.334Z,998.12
2017-11-28T01:50:57.450Z,998.11
2017-11-28T01:51:23.582Z,998.08
2017-11-28T01:51:49.709Z,998.07
2017-11-28T01:52:15.824Z,998.1
2017-11-28T01:52:41.949Z,998.11
2017-11-28T01:53:08.066Z,998.08
2017-11-28T01:53:34.182Z,998.14
2017-11-28T01:54:00.322Z,998.11
2017-11-28T01:54:26.469Z,998.09
2017-11-28T01:54:52.609Z,998.09
2017-11-28T01:55:18.725Z,998.09
2017-11-28T01:55:44.843Z,998.11
2017-11-28T01:56:10.958Z,998.11
2017-11-28T01:56:37.082Z,998.08
2017-11-28T01:57:03.204Z,998.08
2017-11-28T01:57:29.321Z,998.07
2017-11-28T01:57:55.452Z,998.08
2017-11-28T01:58:21.566Z,998.05
2017-11-28T01:58:47.691Z,998.11
2017-11-28T01:59:13.805Z,998.05
2017-11-28T01:59:39.947Z,998.1
2017-11-28T02:00:06.133Z,998.13
2017-11-28T02:00:32.280Z,998.02
2017-11-28T02:00:58.396Z,998.08
2017-11-28T02:01:24.515Z,997.99
2017-11-28T02:01:50.644Z,998.02
2017-11-28T02:02:16.764Z,998.05
2017-11-28T02:02:42.879Z,998.02
2017-11-28T02:03:09.005Z,998.01
2017-11-28T02:03:35.138Z,998.05
2017-11-28T02:04:01.247Z,998.01
2017-11-28T02:04:27.363Z,998.06
2017-11-28T02:04:53.482Z,998.09
2017-11-28T02:05:19.627Z,998.04
2017-11-28T02:05:45.752Z,998.07
2017-11-28T02:06:11.868Z,998.04
2017-11-28T02:06:38.023Z,998.09
2017-11-28T02:07:04.111Z,998.14
2017-11-28T02:07:30.231Z,998.09
2017-11-28T02:07:56.352Z,998.05
2017-11-28T02:08:22.474Z,998.12
2017-11-28T02:08:48.585Z,998.09
2017-11-28T02:09:14.706Z,998.04
2017-11-28T02:09:40.831Z,998.06
2017-11-28T02:10:06.971Z,998.05
2017-11-28T02:10:33.085Z,998.07
2017-11-28T02:10:59.210Z,998.13
2017-11-28T02:11:25.333Z,998.03
2017-11-28T02:11:51.455Z,998.03
2017-11-28T02:12:17.578Z,998.03
2017-11-28T02:12:43.719Z,997.96
2017-11-28T02:13:09.851Z,998.02
2017-11-28T02:13:35.968Z,998.03
2017-11-28T02:14:02.083Z,998.01
2017-11-28T02:14:28.201Z,998.02
2017-11-28T02:14:54.320Z,998.01
2017-11-28T02:15:20.436Z,998.02
2017-11-28T02:15:46.569Z,997.99
2017-11-28T02:16:12.693Z,998.07
2017-11-28T02:16:38.809Z,998.03
2017-11-28T02:17:04.933Z,998.09
2017-11-28T02:17:31.054Z,998.02
2017-11-28T02:17:57.170Z,998.05
2017-11-28T02:18:23.298Z,997.97
2017-11-28T02:18:49.414Z,998.06
2017-11-28T02:19:15.540Z,998.05
2017-11-28T02:19:41.662Z,998.05
2017-11-28T02:20:07.783Z,998.05
2017-11-28T02:20:33.901Z,998.03
2017-11-28T02:21:01.019Z,997.92
2017-11-28T02:21:28.589Z,997.98
2017-11-28T02:21:56.188Z,998.09
2017-11-28T02:22:23.596Z,997.96
2017-11-28T02:22:51.425Z,998.04
2017-11-28T02:23:18.619Z,997.99
2017-11-28T02:23:46.849Z,998.02
2017-11-28T02:24:13.699Z,998.06
2017-11-28T02:24:42.072Z,998.06
2017-11-28T02:25:10.095Z,998.05
2017-11-28T02:25:38.200Z,998.02
2017-11-28T02:26:05.864Z,998.07
2017-11-28T02:26:33.813Z,997.99
2017-11-28T02:27:02.105Z,997.98
2017-11-28T02:27:30.134Z,998.02
2017-11-28T02:27:58.136Z,998.08
2017-11-28T02:28:26.330Z,998.05
2017-11-28T02:28:52.657Z,997.98
2017-11-28T02:29:18.774Z,998.07
2017-11-28T02:29:44.894Z,998.13
2017-11-28T02:30:11.043Z,998.04
2017-11-28T02:30:37.167Z,998.11
2017-11-28T02:31:03.512Z,998.05
2017-11-28T02:31:29.559Z,998.04
2017-11-28T02:31:55.687Z,998.05
2017-11-28T02:32:21.880Z,998.09
2017-11-28T02:32:47.954Z,998.04
2017-11-28T02:33:14.166Z,998.04
2017-11-28T02:33:40.292Z,998.04
2017-11-28T02:34:06.482Z,998.06
2017-11-28T02:34:32.593Z,998.04
2017-11-28T02:34:58.715Z,998.1
2017-11-28T02:35:24.842Z,998.09
2017-11-28T02:35:50.984Z,998.03
2017-11-28T02:36:17.110Z,998.08
2017-11-28T02:36:43.237Z,997.99
2017-11-28T02:37:09.360Z,998.03
2017-11-28T02:37:35.483Z,998.06
2017-11-28T02:38:01.613Z,998.12
2017-11-28T02:38:27.732Z,998.07
2017-11-28T02:38:53.873Z,998.08
2017-11-28T02:39:20.031Z,998.02
2017-11-28T02:39:46.157Z,998.04
2017-11-28T02:40:12.281Z,998.02
2017-11-28T02:40:38.414Z,998.02
2017-11-28T02:41:04.531Z,997.95
2017-11-28T02:41:30.678Z,998.03
2017-11-28T02:41:56.800Z,997.97
2017-11-28T02:42:22.936Z,997.97
2017-11-28T02:42:49.127Z,998.01
2017-11-28T02:43:15.229Z,997.93
2017-11-28T02:43:41.378Z,998
2017-11-28T02:44:07.514Z,997.9
2017-11-28T02:44:33.640Z,998.04
2017-11-28T02:44:59.805Z,997.97
2017-11-28T02:45:25.931Z,997.96
2017-11-28T02:45:52.048Z,997.97
2017-11-28T02:46:18.188Z,997.93
2017-11-28T02:46:44.312Z,997.98
2017-11-28T02:47:10.437Z,997.98
2017-11-28T02:47:36.548Z,997.98
2017-11-28T02:48:02.674Z,997.99
2017-11-28T02:48:28.790Z,998.01
2017-11-28T02:48:54.911Z,998
2017-11-28T02:49:21.038Z,998.02
2017-11-28T02:49:47.158Z,998.01
2017-11-28T02:50:13.273Z,998.05
2017-11-28T02:50:39.397Z,998.01
2017-11-28T02:51:05.517Z,998.06
2017-11-28T02:51:31.634Z,998.02
2017-11-28T02:51:57.794Z,998.03
2017-11-28T02:52:23.877Z,998
2017-11-28T02:52:50.022Z,997.98
2017-11-28T02:53:16.138Z,997.94
2017-11-28T02:53:42.261Z,997.99
2017-11-28T02:54:08.384Z,998.02
2017-11-28T02:54:34.497Z,997.89
2017-11-28T02:55:00.642Z,997.98
2017-11-28T02:55:26.760Z,997.89
2017-11-28T02:55:52.908Z,997.99
2017-11-28T02:56:19.025Z,997.93
2017-11-28T02:56:45.150Z,997.89
2017-11-28T02:57:11.268Z,997.92
2017-11-28T02:57:37.392Z,997.9
2017-11-28T02:58:03.510Z,997.97
2017-11-28T02:58:29.630Z,997.93
2017-11-28T02:58:55.755Z,997.99
2017-11-28T02:59:21.877Z,997.97
2017-11-28T02:59:47.992Z,997.98
2017-11-28T03:00:14.116Z,997.97
2017-11-28T03:00:40.233Z,997.97
2017-11-28T03:01:06.354Z,997.96
2017-11-28T03:01:32.499Z,997.91
2017-11-28T03:01:58.625Z,997.86
2017-11-28T03:02:24.741Z,997.86
2017-11-28T03:02:50.865Z,997.88
2017-11-28T03:03:16.986Z,997.86
2017-11-28T03:03:43.102Z,997.87
2017-11-28T03:04:09.226Z,997.86
2017-11-28T03:04:35.344Z,997.8
2017-11-28T03:05:01.472Z,997.79
2017-11-28T03:05:27.628Z,997.79
2017-11-28T03:05:53.751Z,997.77
2017-11-28T03:06:19.877Z,997.71
2017-11-28T03:06:45.992Z,997.78
2017-11-28T03:07:12.136Z,997.82
2017-11-28T03:07:38.256Z,997.76
2017-11-28T03:08:04.365Z,997.79
2017-11-28T03:08:30.487Z,997.73
2017-11-28T03:08:56.615Z,997.74
2017-11-28T03:09:22.741Z,997.69
2017-11-28T03:09:48.854Z,997.7
2017-11-28T03:10:14.978Z,997.66
2017-11-28T03:10:41.093Z,997.73
2017-11-28T03:11:07.220Z,997.72
2017-11-28T03:11:33.341Z,997.75
2017-11-28T03:11:59.463Z,997.69
2017-11-28T03:12:25.582Z,997.73
2017-11-28T03:12:51.697Z,997.68
2017-11-28T03:13:17.815Z,997.69
2017-11-28T03:13:43.936Z,997.7
2017-11-28T03:14:10.052Z,997.68
2017-11-28T03:14:36.174Z,997.69
2017-11-28T03:15:02.306Z,997.68
2017-11-28T03:15:28.457Z,997.67
2017-11-28T03:15:54.583Z,997.71
2017-11-28T03:16:20.700Z,997.65
2017-11-28T03:16:46.821Z,997.65
2017-11-28T03:17:12.945Z,997.69
2017-11-28T03:17:39.082Z,997.63
2017-11-28T03:18:05.207Z,997.69
2017-11-28T03:18:31.328Z,997.61
2017-11-28T03:18:57.445Z,997.64
2017-11-28T03:19:23.597Z,997.63
2017-11-28T03:19:49.727Z,997.61
2017-11-28T03:20:15.849Z,997.55
2017-11-28T03:20:41.973Z,997.63
2017-11-28T03:21:08.087Z,997.52
2017-11-28T03:21:34.216Z,997.51
2017-11-28T03:22:00.340Z,997.48
2017-11-28T03:22:26.457Z,997.48
2017-11-28T03:22:52.602Z,997.54
2017-11-28T03:23:18.732Z,997.47
2017-11-28T03:23:44.842Z,997.46
2017-11-28T03:24:10.967Z,997.5
2017-11-28T03:24:37.116Z,997.45
2017-11-28T03:25:03.228Z,997.53
2017-11-28T03:25:29.350Z,997.53
2017-11-28T03:25:55.467Z,997.5
2017-11-28T03:26:21.591Z,997.62
2017-11-28T03:26:47.702Z,997.48
2017-11-28T03:27:13.830Z,997.51
2017-11-28T03:27:39.939Z,997.5
2017-11-28T03:28:06.060Z,997.47
2017-11-28T03:28:32.189Z,997.52
2017-11-28T03:28:58.323Z,997.45
2017-11-28T03:29:24.442Z,997.5
2017-11-28T03:29:50.577Z,997.49
2017-11-28T03:30:16.747Z,997.43
2017-11-28T03:30:42.895Z,997.47
2017-11-28T03:31:09.019Z,997.43
2017-11-28T03:31:35.159Z,997.46
2017-11-28T03:32:01.269Z,997.43
2017-11-28T03:32:27.389Z,997.5
2017-11-28T03:32:53.508Z,997.49
2017-11-28T03:33:19.629Z,997.54
2017-11-28T03:33:45.744Z,997.52
2017-11-28T03:34:11.862Z,997.57
2017-11-28T03:34:37.996Z,997.58
2017-11-28T03:35:04.111Z,997.6
2017-11-28T03:35:30.239Z,997.58
2017-11-28T03:35:56.365Z,997.58
2017-11-28T03:36:22.483Z,997.58
2017-11-28T03:36:48.604Z,997.53
2017-11-28T03:37:14.723Z,997.52
2017-11-28T03:37:40.862Z,997.48
2017-11-28T03:38:06.965Z,997.45
2017-11-28T03:38:33.099Z,997.47
2017-11-28T03:38:59.225Z,997.51
2017-11-28T03:39:25.366Z,997.51
2017-11-28T03:39:51.481Z,997.55
2017-11-28T03:40:17.609Z,997.54
2017-11-28T03:40:43.726Z,997.58
2017-11-28T03:41:09.871Z,997.59
2017-11-28T03:41:35.992Z,997.57
2017-11-28T03:42:02.129Z,997.55
2017-11-28T03:42:28.247Z,997.56
2017-11-28T03:42:54.373Z,997.56
2017-11-28T03:43:20.489Z,997.58
2017-11-28T03:43:46.609Z,997.55
2017-11-28T03:44:12.733Z,997.63
2017-11-28T03:44:38.852Z,997.57
2017-11-28T03:45:04.974Z,997.64
2017-11-28T03:45:31.097Z,997.58
2017-11-28T03:45:57.214Z,997.59
2017-11-28T03:46:23.339Z,997.65
2017-11-28T03:46:49.455Z,997.66
2017-11-28T03:47:15.574Z,997.68
2017-11-28T03:47:41.700Z,997.68
2017-11-28T03:48:07.817Z,997.66
2017-11-28T03:48:33.952Z,997.74
2017-11-28T03:49:00.065Z,997.69
2017-11-28T03:49:26.188Z,997.69
2017-11-28T03:49:52.313Z,997.66
2017-11-28T03:50:18.449Z,997.74
2017-11-28T03:50:44.553Z,997.69
2017-11-28T03:51:10.668Z,997.74
2017-11-28T03:51:36.789Z,997.79
2017-11-28T03:52:02.909Z,997.72
2017-11-28T03:52:29.031Z,997.73
2017-11-28T03:52:55.176Z,997.71
2017-11-28T03:53:21.302Z,997.74
2017-11-28T03:53:47.416Z,997.72
2017-11-28T03:54:13.535Z,997.66
2017-11-28T03:54:39.678Z,997.75
2017-11-28T03:55:05.799Z,997.74
2017-11-28T03:55:31.925Z,997.7
2017-11-28T03:55:58.040Z,997.69
2017-11-28T03:56:24.162Z,997.76
2017-11-28T03:56:50.307Z,997.76
2017-11-28T03:57:16.418Z,997.73
2017-11-28T03:57:42.544Z,997.63
2017-11-28T03:58:08.662Z,997.74
2017-11-28T03:58:34.787Z,997.69
2017-11-28T03:59:00.935Z,997.7
2017-11-28T03:59:27.051Z,997.66
2017-11-28T03:59:53.179Z,997.62
2017-11-28T04:00:19.302Z,997.65
2017-11-28T04:00:45.418Z,997.62
2017-11-28T04:01:11.535Z,997.55
2017-11-28T04:01:37.663Z,997.56
2017-11-28T04:02:03.777Z,997.62
2017-11-28T04:02:29.902Z,997.6
2017-11-28T04:02:56.019Z,997.52
2017-11-28T04:03:22.146Z,997.55
2017-11-28T04:03:48.268Z,997.49
2017-11-28T04:04:14.392Z,997.49
2017-11-28T04:04:40.531Z,997.57
2017-11-28T04:05:06.646Z,997.53
2017-11-28T04:05:32.772Z,997.5
2017-11-28T04:05:58.886Z,997.46
2017-11-28T04:06:25.006Z,997.52
2017-11-28T04:06:51.138Z,997.51
2017-11-28T04:07:17.249Z,997.53
2017-11-28T04:07:43.406Z,997.45
2017-11-28T04:08:09.513Z,997.49
2017-11-28T04:08:35.640Z,997.44
2017-11-28T04:09:01.756Z,997.48
2017-11-28T04:09:27.900Z,997.43
2017-11-28T04:09:54.027Z,997.49
2017-11-28T04:10:20.148Z,997.49
2017-11-28T04:10:46.267Z,997.51
2017-11-28T04:11:12.400Z,997.53
2017-11-28T04:11:38.541Z,997.51
2017-11-28T04:12:04.668Z,997.52
2017-11-28T04:12:30.784Z,997.58
2017-11-28T04:12:56.912Z,997.53
2017-11-28T04:13:23.027Z,997.53
2017-11-28T04:13:49.142Z,997.57
2017-11-28T04:14:15.272Z,997.59
2017-11-28T04:14:41.391Z,997.54
2017-11-28T04:15:07.518Z,997.59
2017-11-28T04:15:33.641Z,997.55
2017-11-28T04:15:59.765Z,997.56
2017-11-28T04:16:25.889Z,997.6
2017-11-28T04:16:52.004Z,997.69
2017-11-28T04:17:18.119Z,997.72
2017-11-28T04:17:44.237Z,997.62
2017-11-28T04:18:10.392Z,997.59
2017-11-28T04:18:36.520Z,997.6
2017-11-28T04:19:02.633Z,997.59
2017-11-28T04:19:28.759Z,997.61
2017-11-28T04:19:54.875Z,997.67
2017-11-28T04:20:20.994Z,997.57
2017-11-28T04:20:47.124Z,997.59
2017-11-28T04:21:13.235Z,997.61
2017-11-28T04:21:39.363Z,997.62
2017-11-28T04:22:05.478Z,997.59
2017-11-28T04:22:31.604Z,997.6
2017-11-28T04:22:57.740Z,997.56
2017-11-28T04:23:23.909Z,997.57
2017-11-28T04:23:50.024Z,997.53
2017-11-28T04:24:16.153Z,997.56
2017-11-28T04:24:42.290Z,997.57
2017-11-28T04:25:08.434Z,997.56
2017-11-28T04:25:34.545Z,997.57
2017-11-28T04:26:00.670Z,997.57
2017-11-28T04:26:26.818Z,997.53
2017-11-28T04:26:52.936Z,997.52
2017-11-28T04:27:19.058Z,997.55
2017-11-28T04:27:45.175Z,997.59
2017-11-28T04:28:11.312Z,997.56
2017-11-28T04:28:37.437Z,997.55
2017-11-28T04:29:03.554Z,997.6
2017-11-28T04:29:29.680Z,997.62
2017-11-28T04:29:55.806Z,997.64
2017-11-28T04:30:21.920Z,997.62
2017-11-28T04:30:48.039Z,997.65
2017-11-28T04:31:14.164Z,997.6
2017-11-28T04:31:40.300Z,997.6
2017-11-28T04:32:06.424Z,997.6
2017-11-28T04:32:32.549Z,997.61
2017-11-28T04:32:58.665Z,997.6
2017-11-28T04:33:24.783Z,997.57
2017-11-28T04:33:50.911Z,997.61
2017-11-28T04:34:17.037Z,997.57
2017-11-28T04:34:43.155Z,997.57
2017-11-28T04:35:09.277Z,997.57
2017-11-28T04:35:35.394Z,997.52
2017-11-28T04:36:01.519Z,997.57
2017-11-28T04:36:27.632Z,997.59
2017-11-28T04:36:53.759Z,997.47
2017-11-28T04:37:19.875Z,997.56
2017-11-28T04:37:46.050Z,997.52
2017-11-28T04:38:12.169Z,997.51
2017-11-28T04:38:38.287Z,997.48
2017-11-28T04:39:04.411Z,997.51
2017-11-28T04:39:30.536Z,997.49
2017-11-28T04:39:56.653Z,997.51
2017-11-28T04:40:22.765Z,997.52
2017-11-28T04:40:48.897Z,997.52
2017-11-28T04:41:15.018Z,997.47
2017-11-28T04:41:41.138Z,997.51
2017-11-28T04:42:07.262Z,997.46
2017-11-28T04:42:33.381Z,997.41
2017-11-28T04:42:59.500Z,997.45
2017-11-28T04:43:25.617Z,997.45
2017-11-28T04:43:51.732Z,997.43
2017-11-28T04:44:17.863Z,997.43
2017-11-28T04:44:43.976Z,997.37
2017-11-28T04:45:10.101Z,997.43
2017-11-28T04:45:36.214Z,997.38
2017-11-28T04:46:02.340Z,997.36
2017-11-28T04:46:28.466Z,997.4
2017-11-28T04:46:54.580Z,997.4
2017-11-28T04:47:20.701Z,997.39
2017-11-28T04:47:46.829Z,997.4
2017-11-28T04:48:12.949Z,997.42
2017-11-28T04:48:39.065Z,997.45
2017-11-28T04:49:05.186Z,997.42
2017-11-28T04:49:31.325Z,997.41
2017-11-28T04:49:57.450Z,997.42
2017-11-28T04:50:23.568Z,997.46
2017-11-28T04:50:49.687Z,997.43
2017-11-28T04:51:15.815Z,997.42
2017-11-28T04:51:41.929Z,997.43
2017-11-28T04:52:08.051Z,997.39
2017-11-28T04:52:34.175Z,997.44
2017-11-28T04:53:00.288Z,997.42
2017-11-28T04:53:26.413Z,997.41
2017-11-28T04:53:52.528Z,997.44
2017-11-28T04:54:18.647Z,997.44
2017-11-28T04:54:44.772Z,997.46
2017-11-28T04:55:10.886Z,997.43
2017-11-28T04:55:37.013Z,997.43
2017-11-28T04:56:03.136Z,997.43
2017-11-28T04:56:29.253Z,997.41
2017-11-28T04:56:55.374Z,997.48
2017-11-28T04:57:21.493Z,997.5
2017-11-28T04:57:47.608Z,997.44
2017-11-28T04:58:13.754Z,997.46
2017-11-28T04:58:39.876Z,997.52
2017-11-28T04:59:05.992Z,997.49
2017-11-28T04:59:32.111Z,997.49
2017-11-28T04:59:58.233Z,997.48
2017-11-28T05:00:24.354Z,997.41
2017-11-28T05:00:50.479Z,997.4
2017-11-28T05:01:16.597Z,997.42
2017-11-28T05:01:42.711Z,997.45
2017-11-28T05:02:08.838Z,997.4
2017-11-28T05:02:34.952Z,997.36
2017-11-28T05:03:01.079Z,997.41
2017-11-28T05:03:27.198Z,997.42
2017-11-28T05:03:53.312Z,997.46
2017-11-28T05:04:19.434Z,997.29
2017-11-28T05:04:45.553Z,997.34
2017-11-28T05:05:11.678Z,997.31
2017-11-28T05:05:37.805Z,997.32
2017-11-28T05:06:03.933Z,997.23
2017-11-28T05:06:30.057Z,997.27
2017-11-28T05:06:56.177Z,997.33
2017-11-28T05:07:22.292Z,997.26
2017-11-28T05:07:48.415Z,997.25
2017-11-28T05:08:14.544Z,997.27
2017-11-28T05:08:40.652Z,997.19
2017-11-28T05:09:06.799Z,997.23
2017-11-28T05:09:32.923Z,997.26
2017-11-28T05:09:59.039Z,997.24
2017-11-28T05:10:25.163Z,997.26
2017-11-28T05:10:51.292Z,997.24
2017-11-28T05:11:17.407Z,997.23
2017-11-28T05:11:43.530Z,997.23
2017-11-28T05:12:09.644Z,997.25
2017-11-28T05:12:35.770Z,997.27
2017-11-28T05:13:01.888Z,997.21
2017-11-28T05:13:28.029Z,997.26
2017-11-28T05:13:54.168Z,997.22
2017-11-28T05:14:20.285Z,997.34
2017-11-28T05:14:46.424Z,997.25
2017-11-28T05:15:12.528Z,997.26
2017-11-28T05:15:38.655Z,997.31
2017-11-28T05:16:04.775Z,997.31
2017-11-28T05:16:30.896Z,997.31
2017-11-28T05:16:57.022Z,997.34
2017-11-28T05:17:23.158Z,997.34
2017-11-28T05:17:49.280Z,997.3
2017-11-28T05:18:15.396Z,997.36
2017-11-28T05:18:41.520Z,997.24
2017-11-28T05:19:07.636Z,997.3
2017-11-28T05:19:33.755Z,997.36
2017-11-28T05:19:59.877Z,997.32
2017-11-28T05:20:26.023Z,997.37
2017-11-28T05:20:52.143Z,997.39
2017-11-28T05:21:18.266Z,997.33
2017-11-28T05:21:44.381Z,997.34
2017-11-28T05:22:10.500Z,997.35
2017-11-28T05:22:36.624Z,997.32
2017-11-28T05:23:02.742Z,997.3
2017-11-28T05:23:28.881Z,997.28
2017-11-28T05:23:54.999Z,997.29
2017-11-28T05:24:21.123Z,997.27
2017-11-28T05:24:47.242Z,997.28
2017-11-28T05:25:13.368Z,997.31
2017-11-28T05:25:39.477Z,997.31
2017-11-28T05:26:05.628Z,997.3
2017-11-28T05:26:31.790Z,997.3
2017-11-28T05:26:57.904Z,997.27
2017-11-28T05:27:24.036Z,997.32